createdAt,value
2024-05-09T00:00:15.000Z,7.751953125
2024-05-09T00:01:16.000Z,9.36328125
2024-05-09T00:02:16.000Z,10.974609375
2024-05-09T00:03:16.000Z,7.4296875000000036
2024-05-09T00:04:16.000Z,10.652343750000004
2024-05-09T00:05:16.000Z,9.36328125
2024-05-09T00:06:17.000Z,7.4296875000000036
2024-05-09T00:07:17.000Z,8.718749999999996
2024-05-09T00:08:17.000Z,8.718749999999996
2024-05-09T00:09:17.000Z,10.974609375
2024-05-09T00:10:17.000Z,10.330078124999996
2024-05-09T00:11:18.000Z,9.685546874999995
2024-05-09T00:12:18.000Z,9.36328125
2024-05-09T00:13:18.000Z,9.685546874999995
2024-05-09T00:14:18.000Z,9.36328125
2024-05-09T00:15:18.000Z,9.685546874999995
2024-05-09T00:16:18.000Z,9.36328125
2024-05-09T00:17:19.000Z,10.974609375
2024-05-09T00:18:19.000Z,10.330078124999996
2024-05-09T00:19:19.000Z,9.36328125
2024-05-09T00:20:19.000Z,9.36328125
2024-05-09T00:21:19.000Z,8.396484375000002
2024-05-09T00:22:20.000Z,8.718749999999996
2024-05-09T00:23:20.000Z,10.652343750000004
2024-05-09T00:24:20.000Z,9.36328125
2024-05-09T00:25:20.000Z,8.718749999999996
2024-05-09T00:26:20.000Z,9.685546874999995
2024-05-09T00:27:21.000Z,8.396484375000002
2024-05-09T00:28:21.000Z,9.685546874999995
2024-05-09T00:29:21.000Z,10.007812500000002
2024-05-09T00:30:21.000Z,10.652343750000004
2024-05-09T00:31:21.000Z,9.36328125
2024-05-09T00:32:21.000Z,9.041015625000004
2024-05-09T00:33:22.000Z,9.041015625000004
2024-05-09T00:34:22.000Z,12.263671875000004
2024-05-09T00:35:22.000Z,9.36328125
2024-05-09T00:36:22.000Z,11.619140625000002
2024-05-09T00:37:22.000Z,9.685546874999995
2024-05-09T00:38:23.000Z,7.751953125
2024-05-09T00:39:23.000Z,9.685546874999995
2024-05-09T00:40:23.000Z,9.685546874999995
2024-05-09T00:41:23.000Z,9.36328125
2024-05-09T00:42:23.000Z,9.685546874999995
2024-05-09T00:43:24.000Z,8.718749999999996
2024-05-09T00:44:24.000Z,9.36328125
2024-05-09T00:45:24.000Z,9.36328125
2024-05-09T00:46:24.000Z,9.685546874999995
2024-05-09T00:47:24.000Z,8.396484375000002
2024-05-09T00:48:25.000Z,8.718749999999996
2024-05-09T00:49:25.000Z,9.36328125
2024-05-09T00:50:25.000Z,10.330078124999996
2024-05-09T00:51:25.000Z,8.718749999999996
2024-05-09T00:52:26.000Z,9.685546874999995
2024-05-09T00:53:26.000Z,12.5859375
2024-05-09T00:54:26.000Z,8.718749999999996
2024-05-09T00:55:26.000Z,9.685546874999995
2024-05-09T00:56:26.000Z,9.685546874999995
2024-05-09T00:57:27.000Z,9.685546874999995
2024-05-09T00:58:27.000Z,10.974609375
2024-05-09T00:59:27.000Z,10.007812500000002
2024-05-09T01:00:27.000Z,10.007812500000002
2024-05-09T01:01:28.000Z,9.36328125
2024-05-09T01:02:28.000Z,10.007812500000002
2024-05-09T01:03:28.000Z,7.751953125
2024-05-09T01:04:28.000Z,10.007812500000002
2024-05-09T01:05:28.000Z,9.685546874999995
2024-05-09T01:06:28.000Z,11.296874999999995
2024-05-09T01:07:29.000Z,10.330078124999996
2024-05-09T01:08:29.000Z,11.619140625000002
2024-05-09T01:09:29.000Z,11.619140625000002
2024-05-09T01:10:29.000Z,9.685546874999995
2024-05-09T01:11:29.000Z,10.974609375
2024-05-09T01:12:29.000Z,9.36328125
2024-05-09T01:13:30.000Z,9.36328125
2024-05-09T01:14:30.000Z,10.330078124999996
2024-05-09T01:15:30.000Z,7.751953125
2024-05-09T01:16:30.000Z,8.396484375000002
2024-05-09T01:17:30.000Z,11.619140625000002
2024-05-09T01:18:31.000Z,9.36328125
2024-05-09T01:19:31.000Z,9.685546874999995
2024-05-09T01:20:31.000Z,9.685546874999995
2024-05-09T01:21:31.000Z,10.652343750000004
2024-05-09T01:22:31.000Z,9.36328125
2024-05-09T01:23:32.000Z,9.36328125
2024-05-09T01:24:32.000Z,9.685546874999995
2024-05-09T01:25:32.000Z,10.974609375
2024-05-09T01:26:32.000Z,8.074218749999995
2024-05-09T01:27:32.000Z,9.36328125
2024-05-09T01:28:33.000Z,10.007812500000002
2024-05-09T01:29:33.000Z,9.36328125
2024-05-09T01:30:33.000Z,9.685546874999995
2024-05-09T01:31:33.000Z,10.974609375
2024-05-09T01:32:33.000Z,10.007812500000002
2024-05-09T01:33:34.000Z,10.007812500000002
2024-05-09T01:34:34.000Z,9.685546874999995
2024-05-09T01:35:34.000Z,8.074218749999995
2024-05-09T01:36:34.000Z,8.074218749999995
2024-05-09T01:37:35.000Z,9.685546874999995
2024-05-09T01:38:35.000Z,9.685546874999995
2024-05-09T01:39:35.000Z,9.685546874999995
2024-05-09T01:40:35.000Z,9.685546874999995
2024-05-09T01:41:35.000Z,9.685546874999995
2024-05-09T01:42:36.000Z,5.496093749999997
2024-05-09T01:43:36.000Z,8.396484375000002
2024-05-09T01:44:36.000Z,9.36328125
2024-05-09T01:45:36.000Z,9.36328125
2024-05-09T01:46:36.000Z,9.36328125
2024-05-09T01:47:36.000Z,8.718749999999996
2024-05-09T01:48:37.000Z,8.718749999999996
2024-05-09T01:49:37.000Z,9.685546874999995
2024-05-09T01:50:37.000Z,10.974609375
2024-05-09T01:51:37.000Z,7.751953125
2024-05-09T01:52:37.000Z,8.718749999999996
2024-05-09T01:53:37.000Z,9.36328125
2024-05-09T01:54:38.000Z,9.36328125
2024-05-09T01:55:38.000Z,9.36328125
2024-05-09T01:56:38.000Z,9.36328125
2024-05-09T01:57:38.000Z,9.041015625000004
2024-05-09T01:58:39.000Z,9.041015625000004
2024-05-09T01:59:39.000Z,8.718749999999996
2024-05-09T02:00:39.000Z,9.041015625000004
2024-05-09T02:01:39.000Z,10.330078124999996
2024-05-09T02:02:39.000Z,9.685546874999995
2024-05-09T02:03:40.000Z,10.330078124999996
2024-05-09T02:04:40.000Z,10.652343750000004
2024-05-09T02:05:40.000Z,10.974609375
2024-05-09T02:06:40.000Z,10.330078124999996
2024-05-09T02:07:40.000Z,10.330078124999996
2024-05-09T02:08:41.000Z,8.396484375000002
2024-05-09T02:09:41.000Z,8.074218749999995
2024-05-09T02:10:41.000Z,8.718749999999996
2024-05-09T02:11:41.000Z,9.36328125
2024-05-09T02:12:41.000Z,10.652343750000004
2024-05-09T02:13:42.000Z,7.107421874999997
2024-05-09T02:14:42.000Z,9.36328125
2024-05-09T02:15:42.000Z,10.652343750000004
2024-05-09T02:16:42.000Z,8.718749999999996
2024-05-09T02:17:42.000Z,9.685546874999995
2024-05-09T02:18:43.000Z,8.396484375000002
2024-05-09T02:19:43.000Z,9.041015625000004
2024-05-09T02:20:43.000Z,8.718749999999996
2024-05-09T02:21:43.000Z,8.718749999999996
2024-05-09T02:22:44.000Z,10.652343750000004
2024-05-09T02:23:44.000Z,8.396484375000002
2024-05-09T02:24:44.000Z,7.4296875000000036
2024-05-09T02:25:44.000Z,7.4296875000000036
2024-05-09T02:26:44.000Z,8.718749999999996
2024-05-09T02:27:45.000Z,9.041015625000004
2024-05-09T02:28:45.000Z,8.718749999999996
2024-05-09T02:29:45.000Z,5.496093749999997
2024-05-09T02:30:45.000Z,10.652343750000004
2024-05-09T02:31:46.000Z,7.4296875000000036
2024-05-09T02:32:46.000Z,7.4296875000000036
2024-05-09T02:33:46.000Z,8.718749999999996
2024-05-09T02:34:46.000Z,8.718749999999996
2024-05-09T02:35:46.000Z,9.041015625000004
2024-05-09T02:36:47.000Z,9.041015625000004
2024-05-09T02:37:47.000Z,9.041015625000004
2024-05-09T02:38:47.000Z,10.330078124999996
2024-05-09T02:39:47.000Z,10.007812500000002
2024-05-09T02:40:47.000Z,8.396484375000002
2024-05-09T02:41:47.000Z,7.107421874999997
2024-05-09T02:42:48.000Z,9.041015625000004
2024-05-09T02:43:48.000Z,7.751953125
2024-05-09T02:44:48.000Z,8.718749999999996
2024-05-09T02:45:49.000Z,9.36328125
2024-05-09T02:46:49.000Z,10.330078124999996
2024-05-09T02:47:49.000Z,6.785156250000002
2024-05-09T02:48:49.000Z,8.718749999999996
2024-05-09T02:49:49.000Z,10.652343750000004
2024-05-09T02:50:50.000Z,9.36328125
2024-05-09T02:51:50.000Z,7.107421874999997
2024-05-09T02:52:50.000Z,8.074218749999995
2024-05-09T02:53:50.000Z,9.041015625000004
2024-05-09T02:54:50.000Z,8.074218749999995
2024-05-09T02:55:51.000Z,9.041015625000004
2024-05-09T02:56:51.000Z,9.36328125
2024-05-09T02:57:51.000Z,7.4296875000000036
2024-05-09T02:58:51.000Z,9.041015625000004
2024-05-09T02:59:51.000Z,8.396484375000002
2024-05-09T03:00:52.000Z,9.685546874999995
2024-05-09T03:01:52.000Z,11.296874999999995
2024-05-09T03:02:52.000Z,10.974609375
2024-05-09T03:03:52.000Z,10.330078124999996
2024-05-09T03:04:53.000Z,9.041015625000004
2024-05-09T03:05:53.000Z,11.619140625000002
2024-05-09T03:06:53.000Z,8.396484375000002
2024-05-09T03:07:53.000Z,9.041015625000004
2024-05-09T03:08:54.000Z,10.974609375
2024-05-09T03:09:54.000Z,8.396484375000002
2024-05-09T03:10:54.000Z,10.007812500000002
2024-05-09T03:11:54.000Z,9.36328125
2024-05-09T03:12:54.000Z,9.36328125
2024-05-09T03:13:55.000Z,10.652343750000004
2024-05-09T03:14:55.000Z,8.718749999999996
2024-05-09T03:15:55.000Z,9.041015625000004
2024-05-09T03:16:55.000Z,9.041015625000004
2024-05-09T03:17:55.000Z,9.685546874999995
2024-05-09T03:18:56.000Z,10.007812500000002
2024-05-09T03:19:56.000Z,8.396484375000002
2024-05-09T03:20:56.000Z,9.36328125
2024-05-09T03:21:56.000Z,8.074218749999995
2024-05-09T03:22:56.000Z,9.36328125
2024-05-09T03:23:57.000Z,10.652343750000004
2024-05-09T03:24:57.000Z,9.36328125
2024-05-09T03:25:57.000Z,9.041015625000004
2024-05-09T03:26:57.000Z,9.36328125
2024-05-09T03:27:57.000Z,10.974609375
2024-05-09T03:28:58.000Z,9.36328125
2024-05-09T03:29:58.000Z,9.36328125
2024-05-09T03:30:58.000Z,9.36328125
2024-05-09T03:31:58.000Z,7.751953125
2024-05-09T03:32:58.000Z,9.685546874999995
2024-05-09T03:33:59.000Z,9.36328125
2024-05-09T03:34:59.000Z,10.974609375
2024-05-09T03:35:59.000Z,9.36328125
2024-05-09T03:36:59.000Z,9.041015625000004
2024-05-09T03:37:59.000Z,9.36328125
2024-05-09T03:38:59.000Z,9.685546874999995
2024-05-09T03:40:00.000Z,10.330078124999996
2024-05-09T03:41:00.000Z,7.107421874999997
2024-05-09T03:42:00.000Z,9.36328125
2024-05-09T03:43:00.000Z,8.074218749999995
2024-05-09T03:44:00.000Z,9.36328125
2024-05-09T03:45:01.000Z,11.296874999999995
2024-05-09T03:46:01.000Z,11.296874999999995
2024-05-09T03:47:01.000Z,9.685546874999995
2024-05-09T03:48:01.000Z,7.107421874999997
2024-05-09T03:49:02.000Z,9.041015625000004
2024-05-09T03:50:02.000Z,8.718749999999996
2024-05-09T03:51:02.000Z,7.751953125
2024-05-09T03:52:02.000Z,9.685546874999995
2024-05-09T03:53:03.000Z,9.685546874999995
2024-05-09T03:54:03.000Z,9.36328125
2024-05-09T03:55:03.000Z,9.36328125
2024-05-09T03:56:03.000Z,9.685546874999995
2024-05-09T03:57:03.000Z,9.685546874999995
2024-05-09T03:58:04.000Z,9.685546874999995
2024-05-09T03:59:04.000Z,9.685546874999995
2024-05-09T04:00:04.000Z,9.36328125
2024-05-09T04:01:04.000Z,10.652343750000004
2024-05-09T04:02:04.000Z,9.685546874999995
2024-05-09T04:03:05.000Z,9.36328125
2024-05-09T04:04:05.000Z,12.263671875000004
2024-05-09T04:05:05.000Z,11.296874999999995
2024-05-09T04:06:05.000Z,11.619140625000002
2024-05-09T04:07:06.000Z,9.685546874999995
2024-05-09T04:08:06.000Z,9.685546874999995
2024-05-09T04:09:06.000Z,8.718749999999996
2024-05-09T04:10:06.000Z,11.296874999999995
2024-05-09T04:11:06.000Z,9.685546874999995
2024-05-09T04:12:06.000Z,8.074218749999995
2024-05-09T04:13:07.000Z,8.396484375000002
2024-05-09T04:14:07.000Z,10.007812500000002
2024-05-09T04:15:07.000Z,8.718749999999996
2024-05-09T04:16:07.000Z,11.619140625000002
2024-05-09T04:17:07.000Z,9.685546874999995
2024-05-09T04:18:07.000Z,9.685546874999995
2024-05-09T04:19:08.000Z,10.330078124999996
2024-05-09T04:20:08.000Z,11.296874999999995
2024-05-09T04:21:08.000Z,9.041015625000004
2024-05-09T04:22:08.000Z,10.007812500000002
2024-05-09T04:23:08.000Z,10.330078124999996
2024-05-09T04:24:08.000Z,8.718749999999996
2024-05-09T04:25:09.000Z,10.007812500000002
2024-05-09T04:26:09.000Z,9.041015625000004
2024-05-09T04:27:09.000Z,10.330078124999996
2024-05-09T04:28:09.000Z,7.751953125
2024-05-09T04:29:10.000Z,10.007812500000002
2024-05-09T04:30:10.000Z,9.685546874999995
2024-05-09T04:31:10.000Z,11.941406249999996
2024-05-09T04:32:10.000Z,10.652343750000004
2024-05-09T04:33:10.000Z,8.718749999999996
2024-05-09T04:34:11.000Z,8.718749999999996
2024-05-09T04:35:11.000Z,9.685546874999995
2024-05-09T04:36:11.000Z,11.619140625000002
2024-05-09T04:37:11.000Z,11.619140625000002
2024-05-09T04:38:11.000Z,11.941406249999996
2024-05-09T04:39:12.000Z,7.751953125
2024-05-09T04:40:12.000Z,10.330078124999996
2024-05-09T04:41:12.000Z,10.330078124999996
2024-05-09T04:42:12.000Z,11.296874999999995
2024-05-09T04:43:12.000Z,10.330078124999996
2024-05-09T04:44:13.000Z,8.074218749999995
2024-05-09T04:45:13.000Z,10.007812500000002
2024-05-09T04:46:13.000Z,10.007812500000002
2024-05-09T04:47:13.000Z,8.718749999999996
2024-05-09T04:48:13.000Z,8.718749999999996
2024-05-09T04:49:13.000Z,10.007812500000002
2024-05-09T04:50:14.000Z,10.007812500000002
2024-05-09T04:51:14.000Z,10.007812500000002
2024-05-09T04:52:14.000Z,10.007812500000002
2024-05-09T04:53:14.000Z,8.718749999999996
2024-05-09T04:54:14.000Z,12.263671875000004
2024-05-09T04:55:15.000Z,11.941406249999996
2024-05-09T04:56:15.000Z,10.330078124999996
2024-05-09T04:57:15.000Z,9.041015625000004
2024-05-09T04:58:15.000Z,10.330078124999996
2024-05-09T04:59:15.000Z,10.007812500000002
2024-05-09T05:00:16.000Z,10.007812500000002
2024-05-09T05:01:16.000Z,8.718749999999996
2024-05-09T05:02:16.000Z,8.396484375000002
2024-05-09T05:03:16.000Z,9.685546874999995
2024-05-09T05:04:16.000Z,11.619140625000002
2024-05-09T05:05:17.000Z,10.652343750000004
2024-05-09T05:06:17.000Z,10.007812500000002
2024-05-09T05:07:17.000Z,10.330078124999996
2024-05-09T05:08:17.000Z,11.296874999999995
2024-05-09T05:09:17.000Z,9.041015625000004
2024-05-09T05:10:18.000Z,10.007812500000002
2024-05-09T05:11:18.000Z,10.652343750000004
2024-05-09T05:12:18.000Z,11.941406249999996
2024-05-09T05:13:18.000Z,10.007812500000002
2024-05-09T05:14:19.000Z,10.974609375
2024-05-09T05:15:19.000Z,9.685546874999995
2024-05-09T05:16:19.000Z,8.718749999999996
2024-05-09T05:17:19.000Z,11.296874999999995
2024-05-09T05:18:19.000Z,11.619140625000002
2024-05-09T05:19:20.000Z,11.619140625000002
2024-05-09T05:20:20.000Z,10.330078124999996
2024-05-09T05:21:20.000Z,9.685546874999995
2024-05-09T05:22:20.000Z,8.396484375000002
2024-05-09T05:23:21.000Z,11.296874999999995
2024-05-09T05:24:21.000Z,10.007812500000002
2024-05-09T05:25:21.000Z,11.941406249999996
2024-05-09T05:26:21.000Z,10.652343750000004
2024-05-09T05:27:21.000Z,10.652343750000004
2024-05-09T05:28:21.000Z,10.007812500000002
2024-05-09T05:29:22.000Z,10.652343750000004
2024-05-09T05:30:22.000Z,10.330078124999996
2024-05-09T05:31:22.000Z,10.330078124999996
2024-05-09T05:32:22.000Z,10.330078124999996
2024-05-09T05:33:22.000Z,10.330078124999996
2024-05-09T05:34:23.000Z,11.941406249999996
2024-05-09T05:35:23.000Z,12.263671875000004
2024-05-09T05:36:23.000Z,11.941406249999996
2024-05-09T05:37:23.000Z,8.396484375000002
2024-05-09T05:38:23.000Z,12.908203124999995
2024-05-09T05:39:23.000Z,9.36328125
2024-05-09T05:40:24.000Z,10.007812500000002
2024-05-09T05:41:24.000Z,9.685546874999995
2024-05-09T05:42:24.000Z,10.330078124999996
2024-05-09T05:43:24.000Z,9.041015625000004
2024-05-09T05:44:25.000Z,10.974609375
2024-05-09T05:45:25.000Z,10.007812500000002
2024-05-09T05:46:25.000Z,10.007812500000002
2024-05-09T05:47:25.000Z,11.941406249999996
2024-05-09T05:48:25.000Z,12.263671875000004
2024-05-09T05:49:26.000Z,10.974609375
2024-05-09T05:50:26.000Z,6.140625
2024-05-09T05:51:26.000Z,10.652343750000004
2024-05-09T05:52:26.000Z,11.296874999999995
2024-05-09T05:53:26.000Z,10.007812500000002
2024-05-09T05:54:27.000Z,10.652343750000004
2024-05-09T05:55:27.000Z,10.330078124999996
2024-05-09T05:56:27.000Z,11.296874999999995
2024-05-09T05:57:27.000Z,10.652343750000004
2024-05-09T05:58:27.000Z,10.330078124999996
2024-05-09T05:59:28.000Z,9.685546874999995
2024-05-09T06:00:28.000Z,10.652343750000004
2024-05-09T06:01:28.000Z,10.007812500000002
2024-05-09T06:02:28.000Z,9.36328125
2024-05-09T06:03:28.000Z,10.007812500000002
2024-05-09T06:04:28.000Z,9.041015625000004
2024-05-09T06:05:29.000Z,10.330078124999996
2024-05-09T06:06:29.000Z,9.36328125
2024-05-09T06:07:29.000Z,10.652343750000004
2024-05-09T06:08:29.000Z,9.36328125
2024-05-09T06:09:29.000Z,11.296874999999995
2024-05-09T06:10:30.000Z,8.718749999999996
2024-05-09T06:11:30.000Z,10.330078124999996
2024-05-09T06:12:30.000Z,10.652343750000004
2024-05-09T06:13:30.000Z,10.974609375
2024-05-09T06:14:31.000Z,9.685546874999995
2024-05-09T06:15:31.000Z,12.263671875000004
2024-05-09T06:16:31.000Z,9.041015625000004
2024-05-09T06:17:31.000Z,11.941406249999996
2024-05-09T06:18:31.000Z,10.974609375
2024-05-09T06:19:31.000Z,10.330078124999996
2024-05-09T06:20:32.000Z,12.908203124999995
2024-05-09T06:21:32.000Z,8.718749999999996
2024-05-09T06:22:32.000Z,10.652343750000004
2024-05-09T06:23:32.000Z,10.652343750000004
2024-05-09T06:24:32.000Z,10.652343750000004
2024-05-09T06:25:33.000Z,10.974609375
2024-05-09T06:26:33.000Z,8.074218749999995
2024-05-09T06:27:33.000Z,10.974609375
2024-05-09T06:28:33.000Z,11.619140625000002
2024-05-09T06:29:33.000Z,10.652343750000004
2024-05-09T06:30:34.000Z,8.074218749999995
2024-05-09T06:31:34.000Z,12.5859375
2024-05-09T06:32:34.000Z,10.974609375
2024-05-09T06:33:34.000Z,10.652343750000004
2024-05-09T06:34:34.000Z,9.685546874999995
2024-05-09T06:35:35.000Z,12.263671875000004
2024-05-09T06:36:35.000Z,10.974609375
2024-05-09T06:37:35.000Z,12.263671875000004
2024-05-09T06:38:35.000Z,11.296874999999995
2024-05-09T06:39:36.000Z,10.007812500000002
2024-05-09T06:40:36.000Z,11.296874999999995
2024-05-09T06:41:36.000Z,11.296874999999995
2024-05-09T06:42:36.000Z,10.974609375
2024-05-09T06:43:36.000Z,12.263671875000004
2024-05-09T06:44:37.000Z,10.974609375
2024-05-09T06:45:37.000Z,10.974609375
2024-05-09T06:46:37.000Z,10.974609375
2024-05-09T06:47:37.000Z,8.396484375000002
2024-05-09T06:48:37.000Z,12.5859375
2024-05-09T06:49:37.000Z,10.974609375
2024-05-09T06:50:38.000Z,12.5859375
2024-05-09T06:51:38.000Z,11.296874999999995
2024-05-09T06:52:38.000Z,11.296874999999995
2024-05-09T06:53:38.000Z,11.296874999999995
2024-05-09T06:54:38.000Z,11.296874999999995
2024-05-09T06:55:39.000Z,13.230468750000002
2024-05-09T06:56:39.000Z,10.652343750000004
2024-05-09T06:57:39.000Z,12.5859375
2024-05-09T06:58:39.000Z,11.296874999999995
2024-05-09T06:59:39.000Z,11.941406249999996
2024-05-09T07:00:39.000Z,11.296874999999995
2024-05-09T07:01:40.000Z,11.296874999999995
2024-05-09T07:02:40.000Z,11.296874999999995
2024-05-09T07:03:40.000Z,10.974609375
2024-05-09T07:04:40.000Z,11.296874999999995
2024-05-09T07:05:40.000Z,10.974609375
2024-05-09T07:06:41.000Z,9.685546874999995
2024-05-09T07:07:41.000Z,11.941406249999996
2024-05-09T07:08:41.000Z,9.041015625000004
2024-05-09T07:09:41.000Z,11.619140625000002
2024-05-09T07:10:41.000Z,11.296874999999995
2024-05-09T07:11:41.000Z,10.652343750000004
2024-05-09T07:12:42.000Z,9.36328125
2024-05-09T07:13:42.000Z,10.652343750000004
2024-05-09T07:14:42.000Z,11.296874999999995
2024-05-09T07:15:42.000Z,9.36328125
2024-05-09T07:16:43.000Z,9.041015625000004
2024-05-09T07:17:43.000Z,11.296874999999995
2024-05-09T07:18:43.000Z,12.5859375
2024-05-09T07:19:43.000Z,11.296874999999995
2024-05-09T07:20:43.000Z,11.941406249999996
2024-05-09T07:21:44.000Z,12.908203124999995
2024-05-09T07:22:44.000Z,11.296874999999995
2024-05-09T07:23:44.000Z,10.652343750000004
2024-05-09T07:24:44.000Z,11.941406249999996
2024-05-09T07:25:44.000Z,10.974609375
2024-05-09T07:26:45.000Z,9.36328125
2024-05-09T07:27:45.000Z,10.974609375
2024-05-09T07:28:45.000Z,12.5859375
2024-05-09T07:29:45.000Z,12.263671875000004
2024-05-09T07:30:46.000Z,11.296874999999995
2024-05-09T07:31:46.000Z,9.36328125
2024-05-09T07:32:46.000Z,10.974609375
2024-05-09T07:33:46.000Z,10.652343750000004
2024-05-09T07:34:46.000Z,11.941406249999996
2024-05-09T07:35:46.000Z,11.619140625000002
2024-05-09T07:36:47.000Z,13.552734374999996
2024-05-09T07:37:47.000Z,11.296874999999995
2024-05-09T07:38:47.000Z,11.296874999999995
2024-05-09T07:39:47.000Z,11.296874999999995
2024-05-09T07:40:47.000Z,11.619140625000002
2024-05-09T07:41:48.000Z,11.619140625000002
2024-05-09T07:41:48.000Z,11.619140625000002
2024-05-09T07:42:48.000Z,12.908203124999995
2024-05-09T07:42:48.000Z,12.908203124999995
2024-05-09T07:43:48.000Z,6.462890624999995
2024-05-09T07:43:48.000Z,6.462890624999995
2024-05-09T07:44:48.000Z,12.5859375
2024-05-09T07:44:48.000Z,12.5859375
2024-05-09T07:45:48.000Z,9.36328125
2024-05-09T07:45:48.000Z,9.36328125
2024-05-09T07:46:49.000Z,11.619140625000002
2024-05-09T07:46:49.000Z,11.619140625000002
2024-05-09T07:47:49.000Z,12.908203124999995
2024-05-09T07:47:49.000Z,12.908203124999995
2024-05-09T07:48:49.000Z,9.36328125
2024-05-09T07:48:49.000Z,9.36328125
2024-05-09T07:49:49.000Z,11.619140625000002
2024-05-09T07:49:49.000Z,11.619140625000002
2024-05-09T07:50:49.000Z,11.941406249999996
2024-05-09T07:50:49.000Z,11.941406249999996
2024-05-09T07:51:50.000Z,10.652343750000004
2024-05-09T07:52:50.000Z,11.296874999999995
2024-05-09T07:53:50.000Z,11.296874999999995
2024-05-09T07:54:50.000Z,11.296874999999995
2024-05-09T07:55:50.000Z,11.619140625000002
2024-05-09T07:56:51.000Z,11.296874999999995
2024-05-09T07:57:51.000Z,13.552734374999996
2024-05-09T07:58:51.000Z,11.296874999999995
2024-05-09T07:59:51.000Z,10.974609375
2024-05-09T08:00:51.000Z,10.974609375
2024-05-09T08:01:52.000Z,11.296874999999995
2024-05-09T08:02:52.000Z,11.296874999999995
2024-05-09T08:03:52.000Z,11.619140625000002
2024-05-09T08:04:52.000Z,12.5859375
2024-05-09T08:05:52.000Z,11.941406249999996
2024-05-09T08:06:53.000Z,11.619140625000002
2024-05-09T08:07:53.000Z,13.552734374999996
2024-05-09T08:08:53.000Z,13.230468750000002
2024-05-09T08:09:53.000Z,12.5859375
2024-05-09T08:10:53.000Z,11.941406249999996
2024-05-09T08:11:54.000Z,10.652343750000004
2024-05-09T08:12:54.000Z,11.941406249999996
2024-05-09T08:13:54.000Z,11.296874999999995
2024-05-09T08:14:54.000Z,11.941406249999996
2024-05-09T08:15:54.000Z,11.619140625000002
2024-05-09T08:16:55.000Z,10.330078124999996
2024-05-09T08:17:55.000Z,12.5859375
2024-05-09T08:18:55.000Z,11.941406249999996
2024-05-09T08:19:55.000Z,12.263671875000004
2024-05-09T08:20:56.000Z,13.230468750000002
2024-05-09T08:21:56.000Z,12.263671875000004
2024-05-09T08:22:56.000Z,11.941406249999996
2024-05-09T08:23:56.000Z,11.941406249999996
2024-05-09T08:24:57.000Z,10.007812500000002
2024-05-09T08:25:57.000Z,11.619140625000002
2024-05-09T08:26:57.000Z,13.552734374999996
2024-05-09T08:27:57.000Z,12.263671875000004
2024-05-09T08:28:57.000Z,12.263671875000004
2024-05-09T08:29:57.000Z,11.941406249999996
2024-05-09T08:30:58.000Z,10.652343750000004
2024-05-09T08:31:58.000Z,13.874999999999993
2024-05-09T08:32:58.000Z,11.941406249999996
2024-05-09T08:33:58.000Z,12.263671875000004
2024-05-09T08:34:58.000Z,12.908203124999995
2024-05-09T08:35:59.000Z,12.263671875000004
2024-05-09T08:36:59.000Z,12.263671875000004
2024-05-09T08:37:59.000Z,12.263671875000004
2024-05-09T08:38:59.000Z,11.296874999999995
2024-05-09T08:39:59.000Z,12.908203124999995
2024-05-09T08:41:00.000Z,12.908203124999995
2024-05-09T08:42:00.000Z,12.5859375
2024-05-09T08:43:00.000Z,13.230468750000002
2024-05-09T08:44:00.000Z,14.197265625
2024-05-09T08:45:00.000Z,14.197265625
2024-05-09T08:46:01.000Z,14.197265625
2024-05-09T08:47:01.000Z,15.80859375
2024-05-09T08:48:02.000Z,13.230468750000002
2024-05-09T08:49:02.000Z,13.230468750000002
2024-05-09T08:50:02.000Z,13.230468750000002
2024-05-09T08:51:02.000Z,13.552734374999996
2024-05-09T08:52:03.000Z,12.908203124999995
2024-05-09T08:53:03.000Z,13.552734374999996
2024-05-09T08:54:03.000Z,12.908203124999995
2024-05-09T08:55:03.000Z,14.197265625
2024-05-09T08:56:03.000Z,15.80859375
2024-05-09T08:57:03.000Z,13.874999999999993
2024-05-09T08:58:04.000Z,13.874999999999993
2024-05-09T08:59:04.000Z,13.874999999999993
2024-05-09T09:00:04.000Z,14.197265625
2024-05-09T09:01:04.000Z,15.164062499999996
2024-05-09T09:02:04.000Z,14.841796875000002
2024-05-09T09:03:05.000Z,14.519531249999995
2024-05-09T09:04:05.000Z,14.197265625
2024-05-09T09:05:05.000Z,13.874999999999993
2024-05-09T09:06:05.000Z,16.775390624999996
2024-05-09T09:07:05.000Z,16.453125
2024-05-09T09:08:06.000Z,14.841796875000002
2024-05-09T09:09:06.000Z,14.519531249999995
2024-05-09T09:10:06.000Z,14.197265625
2024-05-09T09:11:06.000Z,13.874999999999993
2024-05-09T09:12:06.000Z,14.519531249999995
2024-05-09T09:13:06.000Z,15.80859375
2024-05-09T09:14:07.000Z,15.164062499999996
2024-05-09T09:15:07.000Z,14.197265625
2024-05-09T09:16:07.000Z,13.230468750000002
2024-05-09T09:17:07.000Z,14.519531249999995
2024-05-09T09:18:07.000Z,14.519531249999995
2024-05-09T09:19:07.000Z,14.519531249999995
2024-05-09T09:20:08.000Z,12.908203124999995
2024-05-09T09:21:08.000Z,14.519531249999995
2024-05-09T09:22:08.000Z,15.80859375